Fort Laramie, Wyoming
Current Conditions -  °F | °C
As of 5:55 PM on Sunday 23 Nov 2014 (Local Time) from KGUR Reporting Station
Clear Clear  
Wind Chill: 27°   Ceiling: Unl
Heat Index: 38°   Visibility: 10mi
Dew Point: 27°   Wind: 23mph
Humidity: 65%   Direction: 320°NW
Pressure: 29.84"   Gusts: 28mph
Location:  42.21°N, 104.52°W
Report Text: KGUR 240055Z AUTO 32020G24KT 10SM CLR 03/M03 A2984 RMK AO2 T00321029
Loading
Personal Weather Stations






























Interactive Weather Map New forecast layout! Learn more

10-Day Weather Forecast

Advertisements
Track Severe Weather on mobile